Time;durP1;ratioP1;P1;durP2;ratioP2;P2;SDS_P1;SDS_P2;PMS_P1;PMS_P2;Temp;Humidity;BMP_temperature;BMP_pressure;BME280_temperature;BME280_humidity;BME280_pressure;Samples;Min_cycle;Max_cycle;Signal;HPM_P1;HPM_P2
2022/10/15 00:01:06;;;;;;;4.00;1.90;;;12.60;99.90;;;;;;5031125;28;20036;-77
2022/10/15 00:03:34;;;;;;;9.15;2.00;;;12.50;99.90;;;;;;5018397;28;20030;-77
2022/10/15 00:06:03;;;;;;;2.50;1.70;;;12.60;99.90;;;;;;5033208;28;20036;-77
2022/10/15 00:08:29;;;;;;;3.30;1.58;;;12.50;99.90;;;;;;5035146;28;20043;-77
2022/10/15 00:11:00;;;;;;;1.95;1.42;;;12.50;99.90;;;;;;5035087;28;20479;-77
2022/10/15 00:13:26;;;;;;;5.28;1.67;;;12.50;99.90;;;;;;5034916;28;20021;-77
2022/10/15 00:15:51;;;;;;;4.78;1.60;;;12.50;99.90;;;;;;5034707;28;20525;-77
2022/10/15 00:18:17;;;;;;;3.60;1.38;;;12.50;99.90;;;;;;5035058;28;20038;-76
2022/10/15 00:20:42;;;;;;;2.80;1.40;;;12.50;99.90;;;;;;5035051;28;20107;-76
2022/10/15 00:23:08;;;;;;;5.10;1.60;;;12.50;99.90;;;;;;5030885;28;20037;-77
2022/10/15 00:25:33;;;;;;;2.42;1.45;;;12.50;99.90;;;;;;5034696;28;20028;-77
2022/10/15 00:27:59;;;;;;;4.78;1.60;;;12.40;99.90;;;;;;5034645;28;20034;-77
2022/10/15 00:30:24;;;;;;;2.92;1.40;;;12.40;99.90;;;;;;5033820;28;20060;-76
2022/10/15 00:32:50;;;;;;;4.65;1.50;;;12.50;99.90;;;;;;5023566;28;20026;-77
2022/10/15 00:35:16;;;;;;;3.53;1.50;;;12.50;99.90;;;;;;5027327;28;20075;-77
2022/10/15 00:37:42;;;;;;;3.38;1.50;;;12.50;99.90;;;;;;5034503;28;20040;-77
2022/10/15 00:40:09;;;;;;;1.65;1.27;;;12.50;99.90;;;;;;5034737;28;20059;-77
2022/10/15 00:42:34;;;;;;;4.40;1.42;;;12.40;99.90;;;;;;5020490;28;20026;-77
2022/10/15 00:45:00;;;;;;;3.15;1.35;;;12.40;99.90;;;;;;5034951;28;20363;-77
2022/10/15 00:47:33;;;;;;;7.22;1.48;;;12.40;99.90;;;;;;5034466;28;20026;-77
2022/10/15 00:50:12;;;;;;;2.22;1.45;;;12.40;99.90;;;;;;5034690;28;20021;-77
2022/10/15 00:53:00;;;;;;;4.15;1.67;;;12.40;99.90;;;;;;5034779;28;20315;-77
2022/10/15 00:55:30;;;;;;;1.80;1.30;;;12.40;99.90;;;;;;5024240;28;20184;-77
2022/10/15 00:58:00;;;;;;;3.35;1.40;;;12.40;99.90;;;;;;5031081;28;20026;-77
2022/10/15 01:00:27;;;;;;;3.47;1.58;;;12.40;99.90;;;;;;5034610;28;20056;-77
2022/10/15 01:02:52;;;;;;;9.55;1.90;;;12.40;99.90;;;;;;5034222;28;20029;-77
2022/10/15 01:05:20;;;;;;;2.05;1.25;;;12.40;99.90;;;;;;5034581;28;20036;-77
2022/10/15 01:07:46;;;;;;;2.67;1.33;;;12.40;99.90;;;;;;5034779;28;20100;-77
2022/10/15 01:10:12;;;;;;;2.42;1.45;;;12.40;99.90;;;;;;5020247;28;20530;-77
2022/10/15 01:13:26;;;;;;;4.53;1.58;;;12.40;99.90;;;;;;5034399;28;20013;-77
2022/10/15 01:16:07;;;;;;;7.22;1.58;;;12.40;99.90;;;;;;5037397;28;20100;-77
2022/10/15 01:18:44;;;;;;;3.65;1.35;;;12.40;99.90;;;;;;5024961;28;20028;-77
2022/10/15 01:21:15;;;;;;;4.07;1.42;;;12.40;99.90;;;;;;5030260;28;20026;-77
2022/10/15 01:23:47;;;;;;;2.70;1.50;;;12.40;99.90;;;;;;5032825;28;20076;-77
2022/10/15 01:26:28;;;;;;;3.13;1.50;;;12.40;99.90;;;;;;5028972;28;20049;-77
2022/10/15 01:29:12;;;;;;;2.35;1.40;;;12.40;99.90;;;;;;5030833;28;20363;-77
2022/10/15 01:31:49;;;;;;;5.30;1.58;;;12.40;99.90;;;;;;5030833;28;20045;-77
2022/10/15 01:34:37;;;;;;;3.30;1.40;;;12.40;99.90;;;;;;5017970;28;20022;-77
2022/10/15 01:37:54;;;;;;;3.22;1.40;;;12.40;99.90;;;;;;5018163;28;20026;-77
2022/10/15 01:40:30;;;;;;;4.45;1.80;;;12.40;99.90;;;;;;5029220;28;20038;-77
2022/10/15 01:43:07;;;;;;;3.97;1.70;;;12.40;99.90;;;;;;5024620;28;20037;-77
2022/10/15 01:45:53;;;;;;;2.45;1.40;;;12.40;99.90;;;;;;5019991;28;20084;-77
2022/10/15 01:48:19;;;;;;;3.17;1.60;;;12.40;99.90;;;;;;5020913;28;20383;-77
2022/10/15 01:50:49;;;;;;;2.67;1.63;;;12.40;99.90;;;;;;5018221;28;20485;-77
2022/10/15 01:53:18;;;;;;;5.55;1.40;;;12.50;99.90;;;;;;5033843;28;20026;-78
2022/10/15 01:55:45;;;;;;;3.03;1.20;;;12.50;99.90;;;;;;5032957;28;20021;-78
2022/10/15 01:58:13;;;;;;;3.40;1.13;;;12.50;99.90;;;;;;5023405;28;20026;-77
2022/10/15 02:00:41;;;;;;;2.38;1.27;;;12.50;99.90;;;;;;5029212;28;20060;-78
2022/10/15 02:03:07;;;;;;;3.70;1.30;;;12.50;99.90;;;;;;5035058;28;20092;-78
2022/10/15 02:05:41;;;;;;;2.42;1.15;;;12.60;99.90;;;;;;5034666;28;20120;-78
2022/10/15 02:08:34;;;;;;;3.17;1.30;;;12.60;99.90;;;;;;5021808;28;20036;-77
2022/10/15 02:11:10;;;;;;;3.55;1.35;;;12.60;99.90;;;;;;5034513;28;20116;-77
2022/10/15 02:13:47;;;;;;;3.97;1.30;;;12.60;99.90;;;;;;5034113;28;20061;-77
2022/10/15 02:16:24;;;;;;;3.95;1.30;;;12.60;99.90;;;;;;5029278;28;20042;-77
2022/10/15 02:19:23;;;;;;;2.08;1.15;;;12.60;99.90;;;;;;5024290;28;20029;-77
2022/10/15 02:22:06;;;;;;;3.45;1.20;;;12.60;99.90;;;;;;5021072;28;20033;-77
2022/10/15 02:24:39;;;;;;;1.80;1.15;;;12.60;99.90;;;;;;5032711;28;20099;-77
2022/10/15 02:27:07;;;;;;;5.18;1.25;;;12.60;99.90;;;;;;5033012;28;20029;-77
2022/10/15 02:29:35;;;;;;;1.70;1.08;;;12.60;99.90;;;;;;5018334;28;20018;-77
2022/10/15 02:32:04;;;;;;;3.53;1.20;;;12.60;99.90;;;;;;5028627;28;20033;-77
2022/10/15 02:34:32;;;;;;;3.58;1.10;;;12.50;99.90;;;;;;5028879;28;20033;-77
2022/10/15 02:37:02;;;;;;;3.85;1.05;;;12.60;99.90;;;;;;5019298;28;20029;-77
2022/10/15 02:39:27;;;;;;;2.47;0.93;;;12.60;99.90;;;;;;5032916;28;20041;-77
2022/10/15 02:41:54;;;;;;;1.88;1.20;;;12.60;99.90;;;;;;5032788;28;20381;-77
2022/10/15 02:44:20;;;;;;;2.78;0.90;;;12.60;99.90;;;;;;5032862;28;20059;-77
2022/10/15 02:46:46;;;;;;;1.65;1.00;;;12.60;99.90;;;;;;5030697;28;20018;-77
2022/10/15 02:49:11;;;;;;;1.85;1.25;;;12.60;99.90;;;;;;5013053;28;20496;-77
2022/10/15 02:51:37;;;;;;;2.60;1.08;;;12.60;99.90;;;;;;5026722;28;20032;-77
2022/10/15 02:54:04;;;;;;;1.60;0.95;;;12.60;99.90;;;;;;5019049;28;20057;-77
2022/10/15 02:56:30;;;;;;;2.40;0.80;;;12.60;99.90;;;;;;5032779;28;20029;-77
2022/10/15 02:58:56;;;;;;;2.75;1.05;;;12.70;99.90;;;;;;5028090;28;20033;-77
2022/10/15 03:01:21;;;;;;;0.93;0.68;;;12.70;99.90;;;;;;5023346;28;20100;-77
2022/10/15 03:03:47;;;;;;;2.00;0.77;;;12.80;99.90;;;;;;5032350;28;20079;-77
2022/10/15 03:06:13;;;;;;;1.17;0.68;;;12.90;99.90;;;;;;5032668;28;20026;-77
2022/10/15 03:08:38;;;;;;;0.93;0.60;;;12.90;99.90;;;;;;5032204;28;20488;-77
2022/10/15 03:11:04;;;;;;;2.13;0.80;;;12.90;99.90;;;;;;5032504;28;20013;-77
2022/10/15 03:13:29;;;;;;;1.73;0.70;;;12.90;99.90;;;;;;5032024;28;20033;-77
2022/10/15 03:15:55;;;;;;;1.13;0.70;;;12.90;99.90;;;;;;5031962;28;20530;-77
2022/10/15 03:18:21;;;;;;;2.42;0.70;;;12.90;99.90;;;;;;5032179;28;20103;-78
2022/10/15 03:20:54;;;;;;;2.08;0.73;;;13.00;99.90;;;;;;5031874;28;20021;-77
2022/10/15 03:23:20;;;;;;;2.50;0.82;;;13.00;99.90;;;;;;5031785;28;20017;-77
2022/10/15 03:25:46;;;;;;;1.25;0.70;;;13.00;99.90;;;;;;5031985;28;20036;-77
2022/10/15 03:28:11;;;;;;;2.50;0.77;;;13.00;99.90;;;;;;5032169;28;20451;-77
2022/10/15 03:30:37;;;;;;;2.05;0.60;;;13.00;99.90;;;;;;5019692;28;20378;-77
2022/10/15 03:33:02;;;;;;;2.22;0.90;;;13.00;99.90;;;;;;5021198;28;20029;-77
2022/10/15 03:35:28;;;;;;;1.15;0.77;;;13.00;99.90;;;;;;5025194;28;20120;-77
2022/10/15 03:37:53;;;;;;;2.53;0.90;;;13.00;99.90;;;;;;5025446;28;20029;-77
2022/10/15 03:40:19;;;;;;;0.77;0.65;;;13.10;99.90;;;;;;5027052;28;20116;-77
2022/10/15 03:42:50;;;;;;;0.95;0.60;;;13.10;99.90;;;;;;5023304;28;20029;-77
2022/10/15 03:45:16;;;;;;;1.65;0.90;;;13.10;99.90;;;;;;5027682;28;20022;-77
2022/10/15 03:47:42;;;;;;;1.85;0.70;;;13.10;99.90;;;;;;5021724;28;20036;-77
2022/10/15 03:50:08;;;;;;;2.05;1.05;;;13.10;99.90;;;;;;5016035;28;20030;-77
2022/10/15 03:52:35;;;;;;;1.10;0.50;;;13.10;99.90;;;;;;5020062;28;20510;-77
2022/10/15 03:55:01;;;;;;;3.70;0.80;;;13.10;99.90;;;;;;5031532;28;20120;-77
2022/10/15 03:57:27;;;;;;;0.88;0.70;;;13.10;99.90;;;;;;5031534;28;20132;-77
2022/10/15 03:59:52;;;;;;;2.63;0.82;;;13.10;99.90;;;;;;5031787;28;20112;-77
2022/10/15 04:02:18;;;;;;;1.15;0.70;;;13.10;99.90;;;;;;5027502;28;20108;-77
2022/10/15 04:04:43;;;;;;;0.82;0.50;;;13.20;99.90;;;;;;5021805;28;20459;-76
2022/10/15 04:07:09;;;;;;;3.58;0.88;;;13.20;99.90;;;;;;5023775;28;20446;-77
2022/10/15 04:09:35;;;;;;;1.52;0.65;;;13.20;99.90;;;;;;5025489;28;20109;-77
2022/10/15 04:12:00;;;;;;;2.60;0.98;;;13.20;99.90;;;;;;5025614;28;20510;-77
2022/10/15 04:14:26;;;;;;;1.00;0.50;;;13.20;99.90;;;;;;5023283;28;20115;-77
2022/10/15 04:16:51;;;;;;;0.50;0.50;;;13.30;99.90;;;;;;5029473;28;20045;-77
2022/10/15 04:19:17;;;;;;;2.15;0.60;;;13.30;99.90;;;;;;5031390;28;20037;-77
2022/10/15 04:21:43;;;;;;;0.85;0.73;;;13.30;99.90;;;;;;5030862;28;20036;-77
2022/10/15 04:24:08;;;;;;;2.60;0.70;;;13.30;99.90;;;;;;5031241;28;20071;-77
2022/10/15 04:26:35;;;;;;;2.58;0.73;;;13.30;99.90;;;;;;5031180;28;20026;-77
2022/10/15 04:29:00;;;;;;;1.40;0.60;;;13.30;99.90;;;;;;5031013;28;20100;-77
2022/10/15 04:31:26;;;;;;;2.17;0.70;;;13.30;99.90;;;;;;5024860;28;20187;-77
2022/10/15 04:33:51;;;;;;;0.65;0.60;;;13.30;99.90;;;;;;5021403;28;20814;-77
2022/10/15 04:36:17;;;;;;;0.70;0.50;;;13.40;99.90;;;;;;5017394;28;20056;-77
2022/10/15 04:38:43;;;;;;;0.98;0.60;;;13.30;99.90;;;;;;5031084;28;20462;-77
2022/10/15 04:41:10;;;;;;;1.70;0.82;;;13.30;99.90;;;;;;5031327;28;20518;-76
2022/10/15 04:43:37;;;;;;;0.60;0.60;;;13.50;99.90;;;;;;5031198;28;20036;-76
2022/10/15 04:46:05;;;;;;;2.08;0.95;;;13.50;99.90;;;;;;5030996;28;20466;-76
2022/10/15 04:48:34;;;;;;;1.90;0.50;;;13.60;99.90;;;;;;5030957;28;20032;-76
2022/10/15 04:51:11;;;;;;;1.65;0.60;;;13.50;99.90;;;;;;5031571;28;20038;-76
2022/10/15 04:53:36;;;;;;;0.75;0.57;;;13.50;99.90;;;;;;5021082;28;20034;-76
2022/10/15 04:56:04;;;;;;;0.73;0.60;;;13.50;99.90;;;;;;5035000;28;20790;-76
2022/10/15 04:58:31;;;;;;;0.40;0.40;;;13.50;99.90;;;;;;5033846;28;20068;-76
2022/10/15 05:01:05;;;;;;;0.50;0.50;;;13.60;99.90;;;;;;5021780;28;20029;-76
2022/10/15 05:03:31;;;;;;;0.50;0.50;;;13.70;99.90;;;;;;5020791;28;20444;-76
2022/10/15 05:06:02;;;;;;;2.50;0.60;;;13.70;99.90;;;;;;5021088;28;20053;-77
2022/10/15 05:08:29;;;;;;;1.83;0.70;;;13.80;99.90;;;;;;5022017;28;20026;-76
2022/10/15 05:10:54;;;;;;;0.63;0.50;;;13.80;99.90;;;;;;5020031;28;20451;-77
2022/10/15 05:13:20;;;;;;;0.60;0.50;;;13.90;99.90;;;;;;5034410;28;20076;-76
2022/10/15 05:15:45;;;;;;;1.10;0.60;;;14.00;99.90;;;;;;5033951;28;20053;-76
2022/10/15 05:18:11;;;;;;;0.60;0.60;;;14.00;99.90;;;;;;5033617;28;20199;-76
2022/10/15 05:20:36;;;;;;;0.95;0.60;;;14.00;99.90;;;;;;5033064;28;20021;-77
2022/10/15 05:23:03;;;;;;;0.95;0.50;;;14.10;99.90;;;;;;5033103;28;20025;-76
2022/10/15 05:25:28;;;;;;;3.13;0.68;;;14.10;99.90;;;;;;5033138;28;20064;-77
2022/10/15 05:27:54;;;;;;;1.75;0.70;;;14.10;99.90;;;;;;5031564;28;20057;-76
2022/10/15 05:30:20;;;;;;;0.50;0.50;;;14.10;99.90;;;;;;5031249;28;20143;-77
2022/10/15 05:32:49;;;;;;;2.10;0.70;;;14.10;99.90;;;;;;5020923;28;20030;-76
2022/10/15 05:35:15;;;;;;;0.60;0.60;;;14.10;99.90;;;;;;5027289;28;20044;-77
2022/10/15 05:37:40;;;;;;;1.52;0.60;;;14.00;99.90;;;;;;5024403;28;20466;-77
2022/10/15 05:40:07;;;;;;;0.93;0.80;;;14.10;99.90;;;;;;5029424;28;20127;-77
2022/10/15 05:42:32;;;;;;;0.80;0.60;;;14.00;99.90;;;;;;5022540;28;20076;-77
2022/10/15 05:44:58;;;;;;;0.50;0.50;;;14.10;99.90;;;;;;5032284;28;20451;-77
2022/10/15 05:47:23;;;;;;;0.80;0.70;;;14.10;99.90;;;;;;5032278;28;20073;-78
2022/10/15 05:49:49;;;;;;;1.30;0.55;;;14.10;99.90;;;;;;5035069;28;20026;-78
2022/10/15 05:52:15;;;;;;;1.02;0.80;;;14.10;99.90;;;;;;5034838;28;20335;-78
2022/10/15 05:54:41;;;;;;;2.45;0.70;;;14.10;99.90;;;;;;5023460;28;20028;-79
2022/10/15 05:57:10;;;;;;;1.38;0.70;;;14.00;99.90;;;;;;5032106;28;20038;-78
2022/10/15 05:59:35;;;;;;;1.00;0.65;;;14.10;99.90;;;;;;5033784;28;20096;-81
2022/10/15 06:02:01;;;;;;;1.30;0.70;;;14.00;99.90;;;;;;5032978;28;20481;-81
2022/10/15 06:04:27;;;;;;;2.30;0.75;;;14.00;99.90;;;;;;5020173;28;20029;-82
2022/10/15 06:06:52;;;;;;;1.90;0.60;;;14.00;99.90;;;;;;5017697;28;20471;-81
2022/10/15 06:09:18;;;;;;;1.45;0.77;;;14.10;99.90;;;;;;5027675;28;20386;-81
2022/10/15 06:11:44;;;;;;;0.77;0.60;;;14.10;99.90;;;;;;5031314;28;20029;-81
2022/10/15 06:14:10;;;;;;;2.15;0.63;;;14.10;99.90;;;;;;5026576;28;20063;-81
2022/10/15 06:16:36;;;;;;;0.63;0.63;;;14.20;99.90;;;;;;5024689;28;20556;-81
2022/10/15 06:19:02;;;;;;;0.65;0.50;;;14.10;99.90;;;;;;5020684;28;20792;-81
2022/10/15 06:21:28;;;;;;;2.10;0.63;;;14.20;99.90;;;;;;5032686;28;20029;-81
2022/10/15 06:23:54;;;;;;;0.77;0.70;;;14.20;99.90;;;;;;5025514;28;20123;-81
2022/10/15 06:26:19;;;;;;;1.05;0.70;;;14.20;99.90;;;;;;5034701;28;20109;-80
2022/10/15 06:28:45;;;;;;;0.82;0.55;;;14.20;99.90;;;;;;5034631;28;20025;-81
2022/10/15 06:31:11;;;;;;;0.50;0.50;;;14.20;99.90;;;;;;5033409;28;20441;-81
2022/10/15 06:33:36;;;;;;;1.15;0.70;;;14.20;99.90;;;;;;5034333;28;20021;-82
2022/10/15 06:36:08;;;;;;;0.95;0.50;;;14.20;99.90;;;;;;5033192;28;20040;-80
2022/10/15 06:38:34;;;;;;;0.70;0.55;;;14.20;99.90;;;;;;5035491;28;20078;-80
2022/10/15 06:41:02;;;;;;;3.35;0.60;;;14.20;99.90;;;;;;5034661;28;20029;-79
2022/10/15 06:43:28;;;;;;;1.15;0.70;;;14.30;99.90;;;;;;5024141;28;20025;-80
2022/10/15 06:45:53;;;;;;;0.73;0.70;;;14.40;99.90;;;;;;5037426;28;20086;-79
2022/10/15 06:48:19;;;;;;;2.03;0.80;;;14.40;99.90;;;;;;5033240;28;20048;-80
2022/10/15 06:50:44;;;;;;;0.50;0.50;;;14.40;99.90;;;;;;5038257;28;20033;-80
2022/10/15 06:53:10;;;;;;;1.30;0.80;;;14.30;99.90;;;;;;5036326;28;20055;-80
2022/10/15 06:55:38;;;;;;;1.77;0.68;;;14.40;99.90;;;;;;5038474;28;20450;-80
2022/10/15 06:58:03;;;;;;;1.77;0.57;;;14.40;99.90;;;;;;5040168;28;20029;-80
2022/10/15 07:00:29;;;;;;;1.52;0.70;;;14.40;99.90;;;;;;5023919;28;20052;-80
2022/10/15 07:02:55;;;;;;;0.57;0.50;;;14.50;99.90;;;;;;5017721;28;20045;-80
2022/10/15 07:05:20;;;;;;;1.23;0.60;;;14.60;99.90;;;;;;5026331;28;20025;-79
2022/10/15 07:07:53;;;;;;;0.75;0.50;;;14.60;99.90;;;;;;5030910;28;20340;-79
2022/10/15 07:10:20;;;;;;;2.33;0.60;;;14.70;99.90;;;;;;5026918;28;20021;-80
2022/10/15 07:12:46;;;;;;;0.50;0.50;;;14.70;99.90;;;;;;5032476;28;20362;-73
2022/10/15 07:15:12;;;;;;;0.50;0.50;;;14.70;99.90;;;;;;5033447;28;20056;-74
2022/10/15 07:17:38;;;;;;;0.68;0.43;;;14.80;99.90;;;;;;5029356;28;20029;-82
2022/10/15 07:20:04;;;;;;;1.08;0.47;;;14.80;99.90;;;;;;5019031;28;20026;-82
2022/10/15 07:22:30;;;;;;;0.57;0.57;;;14.90;99.90;;;;;;5025968;28;20100;-82
2022/10/15 07:24:55;;;;;;;0.40;0.40;;;14.90;99.90;;;;;;5025593;28;20185;-82
2022/10/15 07:27:21;;;;;;;0.60;0.60;;;15.00;99.90;;;;;;5016142;28;20055;-82
2022/10/15 07:29:47;;;;;;;0.38;0.38;;;15.00;99.90;;;;;;5028922;28;20033;-82
2022/10/15 07:32:12;;;;;;;0.90;0.70;;;15.00;99.90;;;;;;5014800;28;20048;-82
2022/10/15 07:34:38;;;;;;;0.50;0.50;;;15.00;99.90;;;;;;5012530;28;20065;-83
2022/10/15 07:37:03;;;;;;;1.27;0.65;;;15.00;99.90;;;;;;5031917;28;20029;-76
2022/10/15 07:39:29;;;;;;;0.50;0.40;;;15.00;99.90;;;;;;5032994;28;20482;-82
2022/10/15 07:41:54;;;;;;;0.57;0.50;;;15.00;99.90;;;;;;5027998;28;20431;-84
2022/10/15 07:44:20;;;;;;;1.95;0.50;;;15.00;99.90;;;;;;5022425;28;20076;-82
2022/10/15 07:46:46;;;;;;;2.17;1.65;;;15.10;99.90;;;;;;5014043;28;20208;-82
2022/10/15 07:49:12;;;;;;;1.25;0.50;;;15.00;99.90;;;;;;5011539;28;20096;-82
2022/10/15 07:51:40;;;;;;;1.25;0.50;;;15.00;99.90;;;;;;5013200;28;20026;-80
2022/10/15 07:54:05;;;;;;;0.60;0.60;;;14.90;99.90;;;;;;5020474;28;20418;-80
2022/10/15 07:56:31;;;;;;;1.10;0.50;;;14.90;99.90;;;;;;5012414;28;20053;-80
2022/10/15 07:58:56;;;;;;;1.60;0.60;;;14.80;99.90;;;;;;5018606;28;20088;-80
2022/10/15 08:01:22;;;;;;;2.90;0.80;;;14.90;99.90;;;;;;5013074;28;20371;-80
2022/10/15 08:03:47;;;;;;;0.82;0.60;;;14.80;99.90;;;;;;5010865;28;20056;-80
2022/10/15 08:06:13;;;;;;;1.85;0.60;;;14.90;99.90;;;;;;5019456;28;20029;-80
2022/10/15 08:08:39;;;;;;;4.18;0.70;;;14.90;99.90;;;;;;5029906;28;21385;-80
2022/10/15 08:11:13;;;;;;;1.33;0.60;;;14.90;99.90;;;;;;5019393;28;20017;-80
2022/10/15 08:13:41;;;;;;;0.95;0.57;;;14.90;99.90;;;;;;5017544;28;20022;-81
2022/10/15 08:16:07;;;;;;;1.45;0.52;;;14.90;99.90;;;;;;5027545;28;20096;-82
2022/10/15 08:18:34;;;;;;;0.85;0.50;;;14.90;99.90;;;;;;5023095;28;20107;-81
2022/10/15 08:21:00;;;;;;;1.33;0.60;;;15.00;99.90;;;;;;5029882;28;20048;-79
2022/10/15 08:23:26;;;;;;;0.80;0.50;;;15.00;99.90;;;;;;5028104;28;20470;-79
2022/10/15 08:25:51;;;;;;;1.20;0.60;;;15.00;99.90;;;;;;5024858;28;20105;-80
2022/10/15 08:28:17;;;;;;;0.70;0.70;;;15.10;99.90;;;;;;5027612;28;20101;-79
2022/10/15 08:30:42;;;;;;;2.10;0.68;;;15.20;99.90;;;;;;5031611;28;20067;-79
2022/10/15 08:33:08;;;;;;;0.85;0.50;;;15.20;99.90;;;;;;5023039;28;20042;-79
2022/10/15 08:35:34;;;;;;;0.88;0.43;;;15.30;99.90;;;;;;5034854;28;20105;-79
2022/10/15 08:38:00;;;;;;;0.60;0.60;;;15.40;99.90;;;;;;5020557;28;20036;-79
2022/10/15 08:40:28;;;;;;;0.85;0.55;;;15.30;99.90;;;;;;5034731;28;20037;-79
2022/10/15 08:42:53;;;;;;;0.68;0.60;;;15.30;99.90;;;;;;5034465;28;20030;-79
2022/10/15 08:45:33;;;;;;;0.63;0.50;;;15.30;99.90;;;;;;5034110;28;20033;-79
2022/10/15 08:48:05;;;;;;;3.20;0.60;;;15.30;99.90;;;;;;5022319;28;20733;-80
2022/10/15 08:50:52;;;;;;;0.95;0.63;;;15.20;99.90;;;;;;5028394;28;20033;-79
2022/10/15 08:53:21;;;;;;;0.55;0.50;;;15.20;99.90;;;;;;5014375;28;20026;-79
2022/10/15 08:55:49;;;;;;;2.22;0.73;;;15.10;99.90;;;;;;5020879;28;20109;-79
2022/10/15 08:58:24;;;;;;;1.25;0.75;;;15.00;99.90;;;;;;5020697;28;20038;-80
2022/10/15 09:01:09;;;;;;;0.57;0.55;;;14.90;99.90;;;;;;5033914;28;20113;-79
2022/10/15 09:04:01;;;;;;;1.50;0.73;;;15.00;99.90;;;;;;5034043;28;20430;-79
2022/10/15 09:06:33;;;;;;;0.82;0.70;;;14.90;99.90;;;;;;5033713;28;20156;-79
2022/10/15 09:09:18;;;;;;;2.15;0.60;;;14.90;99.90;;;;;;5033996;28;20026;-79
2022/10/15 09:11:58;;;;;;;0.95;0.65;;;14.90;99.90;;;;;;5033521;28;20022;-79
2022/10/15 09:14:33;;;;;;;1.55;0.90;;;14.80;99.90;;;;;;5033647;28;20033;-80
2022/10/15 09:17:02;;;;;;;4.03;0.75;;;14.80;99.90;;;;;;5033235;28;20321;-80
2022/10/15 09:19:28;;;;;;;2.33;0.90;;;14.80;99.90;;;;;;5033654;28;20394;-80
2022/10/15 09:21:54;;;;;;;0.73;0.65;;;14.90;99.90;;;;;;5033292;28;20127;-80
2022/10/15 09:24:27;;;;;;;0.77;0.60;;;14.90;99.90;;;;;;5033566;28;20143;-80
2022/10/15 09:27:02;;;;;;;1.55;0.70;;;15.00;99.90;;;;;;5033551;28;20535;-80
2022/10/15 09:29:46;;;;;;;2.60;0.88;;;15.20;99.90;;;;;;5033514;28;20045;-80
2022/10/15 09:32:26;;;;;;;0.85;0.70;;;15.40;99.90;;;;;;5019066;28;20487;-80
2022/10/15 09:35:11;;;;;;;1.30;0.73;;;15.60;99.90;;;;;;5019690;28;20036;-80
2022/10/15 09:38:14;;;;;;;2.92;0.90;;;15.70;99.90;;;;;;5023752;28;20030;-80
2022/10/15 09:41:30;;;;;;;1.58;0.80;;;15.90;99.90;;;;;;5032110;28;20762;-80
2022/10/15 09:43:58;;;;;;;;;;;16.00;99.90;;;;;;5032106;28;20050;-80
2022/10/15 09:46:23;;;;;;;1.25;0.88;;;16.10;99.90;;;;;;5032998;28;19905;-80
2022/10/15 09:49:06;;;;;;;1.00;0.80;;;16.20;99.90;;;;;;5032178;28;20107;-80
2022/10/15 09:51:42;;;;;;;1.98;0.68;;;16.30;99.90;;;;;;5031175;28;20032;-80
2022/10/15 09:54:34;;;;;;;1.23;0.70;;;16.40;99.90;;;;;;5027566;28;20030;-79
2022/10/15 09:56:59;;;;;;;2.10;0.80;;;16.50;99.90;;;;;;5013179;28;20095;-79
2022/10/15 09:59:25;;;;;;;1.25;0.80;;;16.70;99.90;;;;;;5019807;28;20516;-79
2022/10/15 10:02:03;;;;;;;1.40;0.90;;;16.80;99.90;;;;;;5030305;28;20029;-79
2022/10/15 10:04:33;;;;;;;2.33;1.00;;;17.00;99.90;;;;;;5014438;28;20104;-79
2022/10/15 10:07:02;;;;;;;2.25;0.85;;;17.10;99.90;;;;;;5024876;28;20048;-79
2022/10/15 10:09:32;;;;;;;0.93;0.70;;;17.30;99.90;;;;;;5025018;28;20136;-79
2022/10/15 10:12:04;;;;;;;1.50;0.70;;;17.50;99.90;;;;;;5026886;28;20021;-79
2022/10/15 10:14:43;;;;;;;1.00;0.70;;;17.60;99.90;;;;;;5013285;28;20374;-80
2022/10/15 10:17:19;;;;;;;1.33;0.70;;;17.80;99.90;;;;;;5012796;28;20085;-80
2022/10/15 10:20:21;;;;;;;1.42;0.80;;;17.90;99.90;;;;;;5014705;28;20026;-80
2022/10/15 10:22:55;;;;;;;1.48;0.70;;;18.10;99.90;;;;;;5026672;28;20064;-80
2022/10/15 10:25:34;;;;;;;1.38;0.70;;;18.30;99.90;;;;;;5015167;28;20062;-80
2022/10/15 10:28:08;;;;;;;4.13;1.10;;;18.50;99.90;;;;;;5023276;28;20094;-80
2022/10/15 10:30:41;;;;;;;2.05;1.15;;;18.70;99.90;;;;;;5027893;28;20033;-80
2022/10/15 10:33:11;;;;;;;2.58;0.63;;;18.80;99.90;;;;;;5015311;28;20145;-79
2022/10/15 10:35:48;;;;;;;3.10;1.00;;;19.00;99.90;;;;;;5014166;28;20531;-80
2022/10/15 10:38:23;;;;;;;1.33;0.68;;;19.10;99.90;;;;;;5028244;28;20718;-80
2022/10/15 10:40:59;;;;;;;2.78;0.82;;;19.30;99.90;;;;;;5032368;28;20106;-80
2022/10/15 10:43:27;;;;;;;3.00;0.70;;;19.60;99.90;;;;;;5032420;28;20553;-81
2022/10/15 10:46:15;;;;;;;1.60;0.70;;;19.60;99.90;;;;;;5028619;28;20056;-81
2022/10/15 10:48:43;;;;;;;3.70;0.90;;;19.60;99.90;;;;;;5023273;28;20068;-81
2022/10/15 10:51:14;;;;;;;1.55;0.70;;;19.50;99.90;;;;;;5015753;28;20026;-88
2022/10/15 10:54:01;;;;;;;2.88;0.90;;;19.50;99.90;;;;;;5015282;28;20378;-81
2022/10/15 10:56:42;;;;;;;5.63;0.88;;;19.50;99.90;;;;;;5026759;28;20029;-82
2022/10/15 10:59:16;;;;;;;5.05;0.90;;;19.30;99.90;;;;;;5023095;28;20014;-84
2022/10/15 11:01:42;;;;;;;2.60;0.73;;;19.30;99.90;;;;;;5032467;28;20022;-84
2022/10/15 11:04:26;;;;;;;1.15;0.77;;;19.30;99.90;;;;;;5031961;28;20288;-83
2022/10/15 11:07:07;;;;;;;0.80;0.63;;;19.30;99.90;;;;;;5032566;28;20021;-83
2022/10/15 11:10:01;;;;;;;4.03;1.00;;;19.20;99.90;;;;;;5026454;28;20029;-84
2022/10/15 11:12:47;;;;;;;2.67;0.70;;;19.30;99.90;;;;;;5026739;28;20662;-84
2022/10/15 11:15:30;;;;;;;1.98;0.80;;;19.50;99.90;;;;;;5023064;28;20487;-83
2022/10/15 11:18:26;;;;;;;2.65;0.90;;;19.50;99.90;;;;;;5024689;28;20363;-84
2022/10/15 11:21:16;;;;;;;;;;;19.60;99.90;;;;;;5027773;28;20025;-84
2022/10/15 11:24:05;;;;;;;2.45;0.90;;;19.80;99.90;;;;;;5028126;28;19959;-84
2022/10/15 11:26:51;;;;;;;1.70;0.77;;;19.80;99.90;;;;;;5025392;28;20022;-83
2022/10/15 11:29:27;;;;;;;1.10;0.80;;;19.70;99.90;;;;;;5025592;28;20038;-83
2022/10/15 11:32:05;;;;;;;2.05;0.70;;;19.60;99.90;;;;;;5026518;28;20022;-83
2022/10/15 11:34:44;;;;;;;2.72;0.90;;;19.30;99.90;;;;;;5022068;28;20037;-82
2022/10/15 11:37:34;;;;;;;1.42;0.80;;;19.20;99.90;;;;;;5025529;28;20049;-82
2022/10/15 11:40:12;;;;;;;0.95;0.63;;;19.40;99.90;;;;;;5025812;28;20125;-83
2022/10/15 11:42:51;;;;;;;2.42;0.70;;;19.60;99.90;;;;;;5031347;28;20036;-84
2022/10/15 11:45:38;;;;;;;1.02;0.70;;;19.70;99.90;;;;;;5029046;28;20055;-84
2022/10/15 11:48:19;;;;;;;1.60;0.82;;;19.70;99.90;;;;;;5031495;28;20020;-84
2022/10/15 11:51:10;;;;;;;1.58;0.80;;;19.90;99.90;;;;;;5032128;28;20088;-84
2022/10/15 11:54:00;;;;;;;3.13;0.80;;;20.00;99.90;;;;;;5047465;28;20037;-84
2022/10/15 11:56:33;;;;;;;1.90;0.73;;;20.10;99.90;;;;;;5032986;28;20026;-84
2022/10/15 11:59:18;;;;;;;1.13;0.70;;;20.20;99.90;;;;;;5018655;28;20529;-76
2022/10/15 12:01:48;;;;;;;1.45;0.70;;;20.40;99.90;;;;;;5014356;28;20057;-77
2022/10/15 12:04:35;;;;;;;0.90;0.50;;;20.60;99.90;;;;;;5032234;28;20505;-76
2022/10/15 12:07:05;;;;;;;4.30;0.80;;;20.70;99.90;;;;;;5031802;28;20037;-76
2022/10/15 12:09:38;;;;;;;1.00;0.75;;;20.60;99.90;;;;;;5032772;28;20063;-76
2022/10/15 12:12:32;;;;;;;0.85;0.68;;;20.50;99.90;;;;;;5032352;28;20037;-77
2022/10/15 12:15:13;;;;;;;2.70;1.08;;;20.50;99.90;;;;;;5031373;28;20120;-75
2022/10/15 12:17:57;;;;;;;4.60;1.20;;;20.40;99.90;;;;;;5033059;28;20021;-75
2022/10/15 12:20:25;;;;;;;5.68;0.82;;;20.30;99.90;;;;;;5025849;28;20022;-75
2022/10/15 12:23:00;;;;;;;2.78;0.70;;;20.30;99.90;;;;;;5044698;28;20026;-75
2022/10/15 12:25:34;;;;;;;4.40;0.80;;;20.40;99.90;;;;;;5032147;28;20458;-75
2022/10/15 12:28:12;;;;;;;1.75;0.70;;;20.40;99.90;;;;;;5031392;28;20022;-75
2022/10/15 12:30:41;;;;;;;1.27;0.70;;;20.20;99.90;;;;;;5032669;28;20022;-75
2022/10/15 12:33:33;;;;;;;1.42;0.70;;;20.00;99.90;;;;;;5032766;28;20033;-75
2022/10/15 12:36:21;;;;;;;1.02;0.68;;;19.60;99.90;;;;;;5032876;28;20106;-75
2022/10/15 12:39:17;;;;;;;5.07;0.90;;;19.60;99.90;;;;;;5028451;28;20060;-75
2022/10/15 12:41:46;;;;;;;1.95;0.80;;;19.70;99.90;;;;;;5032737;28;20389;-75
2022/10/15 12:44:21;;;;;;;2.28;1.00;;;19.70;99.90;;;;;;5032612;28;20061;-75
2022/10/15 12:46:47;;;;;;;3.38;0.90;;;19.80;99.90;;;;;;5032367;28;20066;-81
2022/10/15 12:49:44;;;;;;;1.02;0.80;;;19.90;99.90;;;;;;5032453;28;20075;-78
2022/10/15 12:52:48;;;;;;;3.33;0.93;;;20.00;99.90;;;;;;5032615;28;20033;-77
2022/10/15 12:55:36;;;;;;;2.70;0.90;;;20.00;99.90;;;;;;5024557;28;20038;-76
2022/10/15 12:58:24;;;;;;;0.80;0.60;;;20.00;99.90;;;;;;5032259;28;20025;-75
2022/10/15 13:00:50;;;;;;;1.92;0.73;;;20.20;99.90;;;;;;5032810;28;20028;-76
2022/10/15 13:03:33;;;;;;;1.65;0.80;;;20.30;99.90;;;;;;5032183;28;20021;-74
2022/10/15 13:06:20;;;;;;;2.42;0.90;;;20.10;99.90;;;;;;5032261;28;20033;-77
2022/10/15 13:09:10;;;;;;;2.45;0.60;;;20.10;99.90;;;;;;5021314;28;20040;-80
2022/10/15 13:11:42;;;;;;;1.20;0.80;;;20.00;99.90;;;;;;5031413;28;20025;-75